Aviation Digital Data Service (ADDS)

Output produced by TAFs form (0143 UTC 20 January 2017)
found at http://aviationweather.gov/adds/tafs/
 
KTUS 200053Z 36004KT 10SM FEW080 OVC100 13/01 A2992 RMK AO2 SLP115 T01330011
KTUS 192335Z 2000/2024 16007KT P6SM VCSH BKN070 OVC120 
     FM200700 20009KT P6SM VCSH SCT040 OVC060 
     FM201200 24009KT P6SM -RA OVC040 
     FM202100 23012G20KT P6SM -RA OVC040